Time;durP1;ratioP1;P1;durP2;ratioP2;P2;SDS_P1;SDS_P2;PMS_P1;PMS_P2;Temp;Humidity;BMP_temperature;BMP_pressure;BME280_temperature;BME280_humidity;BME280_pressure;Samples;Min_cycle;Max_cycle;Signal;HPM_P1;HPM_P2
2021/09/07 04:00:39;;;;;;;33.10;20.83;;;13.30;99.90;;;;;;6117520;23;20436;-70
2021/09/07 04:03:13;;;;;;;28.50;21.50;;;13.30;99.90;;;;;;6152159;23;20222;-68
2021/09/07 04:05:40;;;;;;;33.80;21.23;;;13.30;99.90;;;;;;6151911;23;20501;-68
2021/09/07 04:08:06;;;;;;;36.90;23.17;;;13.30;99.90;;;;;;6152899;23;20588;-68
2021/09/07 04:10:33;;;;;;;29.90;21.40;;;13.20;99.90;;;;;;6151914;23;20497;-67
2021/09/07 04:13:00;;;;;;;34.78;22.60;;;13.30;99.90;;;;;;6152360;23;20458;-68
2021/09/07 04:15:26;;;;;;;30.70;20.17;;;13.20;99.90;;;;;;6153219;23;20179;-68
2021/09/07 04:17:54;;;;;;;40.15;22.42;;;13.20;99.90;;;;;;6152647;23;20487;-69
2021/09/07 04:20:21;;;;;;;32.27;23.13;;;13.20;99.90;;;;;;6152405;23;20179;-68
2021/09/07 04:22:49;;;;;;;29.33;20.10;;;13.20;99.90;;;;;;6152328;23;20430;-68
2021/09/07 04:25:16;;;;;;;32.83;21.52;;;13.20;99.90;;;;;;6152609;23;20458;-68
2021/09/07 04:27:42;;;;;;;31.35;22.75;;;13.20;99.90;;;;;;6153184;23;20246;-70
2021/09/07 04:30:11;;;;;;;30.83;22.33;;;13.20;99.90;;;;;;6154015;23;20237;-70
2021/09/07 04:32:38;;;;;;;28.67;21.13;;;13.10;99.90;;;;;;6153229;23;20198;-68
2021/09/07 04:35:08;;;;;;;31.30;20.92;;;13.20;99.90;;;;;;6153578;23;20190;-68
2021/09/07 04:37:35;;;;;;;31.50;21.80;;;13.20;99.90;;;;;;6154118;23;20183;-68
2021/09/07 04:40:01;;;;;;;33.20;23.33;;;13.20;99.90;;;;;;6153907;23;20427;-68
2021/09/07 04:42:28;;;;;;;33.47;22.10;;;13.20;99.90;;;;;;6153577;23;20661;-69
2021/09/07 04:44:54;;;;;;;27.40;20.90;;;13.20;99.90;;;;;;6153345;23;20477;-71
2021/09/07 04:47:21;;;;;;;33.43;23.60;;;13.20;99.90;;;;;;6152723;23;20509;-71
2021/09/07 04:49:48;;;;;;;35.20;22.47;;;13.20;99.90;;;;;;6152907;23;20806;-70
2021/09/07 04:52:16;;;;;;;30.50;22.70;;;13.20;99.90;;;;;;6153767;23;20449;-70
2021/09/07 04:54:42;;;;;;;33.00;21.80;;;13.20;99.90;;;;;;6153403;23;20505;-71
2021/09/07 04:57:09;;;;;;;39.37;24.60;;;13.20;99.90;;;;;;6154345;23;20423;-70
2021/09/07 04:59:36;;;;;;;46.23;27.77;;;13.30;99.90;;;;;;6153530;23;20426;-70
2021/09/07 05:02:02;;;;;;;47.33;28.03;;;13.30;99.90;;;;;;6111920;23;1002014;-73
2021/09/07 05:04:29;;;;;;;48.47;29.93;;;13.40;99.90;;;;;;6154608;23;20532;-72
2021/09/07 05:06:56;;;;;;;49.00;28.30;;;13.40;99.90;;;;;;6154796;23;20427;-72
2021/09/07 05:09:24;;;;;;;49.20;29.87;;;13.50;99.90;;;;;;6154899;23;20433;-70
2021/09/07 05:11:50;;;;;;;55.60;33.47;;;13.50;99.90;;;;;;6156266;23;20456;-71
2021/09/07 05:14:17;;;;;;;52.03;32.53;;;13.60;99.90;;;;;;6155807;23;20419;-71
2021/09/07 05:16:44;;;;;;;52.90;31.67;;;13.70;99.90;;;;;;6155237;23;20937;-71
2021/09/07 05:19:11;;;;;;;58.30;33.63;;;13.70;99.90;;;;;;6154296;23;20427;-71
2021/09/07 05:21:37;;;;;;;53.43;33.60;;;13.80;99.90;;;;;;6154260;23;20485;-71
2021/09/07 05:24:04;;;;;;;51.00;32.37;;;13.80;99.90;;;;;;6156144;23;20493;-71
2021/09/07 05:26:32;;;;;;;63.23;32.87;;;13.90;99.90;;;;;;6155094;23;20898;-71
2021/09/07 05:28:59;;;;;;;55.43;32.60;;;13.90;99.90;;;;;;6155614;23;20407;-70
2021/09/07 05:31:26;;;;;;;48.50;33.23;;;14.00;99.90;;;;;;6159262;23;20505;-71
2021/09/07 05:33:52;;;;;;;50.30;31.87;;;14.00;99.90;;;;;;6154332;23;20775;-72
2021/09/07 05:36:19;;;;;;;57.90;35.00;;;14.00;99.90;;;;;;6154127;23;20482;-68
2021/09/07 05:38:46;;;;;;;46.60;32.10;;;14.10;99.90;;;;;;6154127;23;20438;-72
2021/09/07 05:41:12;;;;;;;53.87;33.23;;;14.10;99.90;;;;;;6154718;23;20924;-71
2021/09/07 05:43:40;;;;;;;49.17;32.47;;;14.10;99.90;;;;;;6154375;23;20892;-71
2021/09/07 05:46:07;;;;;;;45.90;32.87;;;14.20;99.90;;;;;;6155201;23;20494;-73
2021/09/07 05:48:34;;;;;;;53.63;35.13;;;14.30;99.90;;;;;;6154853;23;20430;-71
2021/09/07 05:51:00;;;;;;;56.77;33.53;;;14.40;99.90;;;;;;6154328;23;20461;-72
2021/09/07 05:53:27;;;;;;;50.80;33.57;;;14.40;99.90;;;;;;6155029;23;20725;-71
2021/09/07 05:55:54;;;;;;;51.20;32.40;;;14.50;99.90;;;;;;6155243;23;20418;-71
2021/09/07 05:58:20;;;;;;;53.27;34.13;;;14.50;99.90;;;;;;6155552;23;20423;-71
2021/09/07 06:00:48;;;;;;;47.50;32.67;;;14.70;99.90;;;;;;6155028;23;20775;-71
2021/09/07 06:03:15;;;;;;;48.53;29.57;;;14.70;99.90;;;;;;6154415;23;20994;-71
2021/09/07 06:05:41;;;;;;;44.27;29.77;;;14.90;99.90;;;;;;6154598;23;20443;-71
2021/09/07 06:08:08;;;;;;;46.83;30.97;;;14.90;99.90;;;;;;6155385;23;20429;-71
2021/09/07 06:10:36;;;;;;;35.90;26.90;;;15.00;99.90;;;;;;6155022;23;20513;-71
2021/09/07 06:13:05;;;;;;;39.60;27.17;;;15.00;99.90;;;;;;6155028;23;20422;-71
2021/09/07 06:15:32;;;;;;;32.37;24.50;;;15.10;99.90;;;;;;6155392;23;20419;-71
2021/09/07 06:18:00;;;;;;;33.53;23.17;;;15.10;99.90;;;;;;6154956;23;20427;-71
2021/09/07 06:20:26;;;;;;;29.53;21.63;;;15.10;99.90;;;;;;6154734;23;20497;-71
2021/09/07 06:22:53;;;;;;;29.97;21.20;;;15.10;99.90;;;;;;6154985;23;20755;-72
2021/09/07 06:25:20;;;;;;;31.03;21.73;;;15.20;99.90;;;;;;6154988;23;20469;-72
2021/09/07 06:27:46;;;;;;;25.80;20.30;;;15.20;99.90;;;;;;6155915;23;20431;-71
2021/09/07 06:30:13;;;;;;;34.40;22.70;;;15.30;99.90;;;;;;6154594;23;20428;-72
2021/09/07 06:32:40;;;;;;;27.63;21.40;;;15.30;99.90;;;;;;6154246;23;20410;-71
2021/09/07 06:35:09;;;;;;;28.63;22.70;;;15.40;99.90;;;;;;6154874;23;20537;-71
2021/09/07 06:37:37;;;;;;;27.83;21.50;;;15.40;99.90;;;;;;6155329;23;20429;-71
2021/09/07 06:40:05;;;;;;;32.13;23.97;;;15.50;99.90;;;;;;6154849;23;20434;-72
2021/09/07 06:42:31;;;;;;;28.70;22.57;;;15.60;99.90;;;;;;6154213;23;20805;-71
2021/09/07 06:44:58;;;;;;;31.00;22.80;;;15.60;99.90;;;;;;6154567;23;20967;-71
2021/09/07 06:47:24;;;;;;;27.17;22.30;;;15.70;99.90;;;;;;6154692;23;20520;-70
2021/09/07 06:49:51;;;;;;;28.27;22.40;;;15.80;99.90;;;;;;6154846;23;20489;-69
2021/09/07 06:52:20;;;;;;;26.90;22.10;;;15.80;99.90;;;;;;6154225;23;20975;-69
2021/09/07 06:54:47;;;;;;;29.07;21.93;;;15.90;99.90;;;;;;6155163;23;20513;-69
2021/09/07 06:57:14;;;;;;;25.03;20.77;;;15.90;99.90;;;;;;6155183;23;20422;-70
2021/09/07 06:59:40;;;;;;;33.17;23.93;;;16.00;99.90;;;;;;6154915;23;20917;-68
2021/09/07 07:02:07;;;;;;;28.33;22.13;;;16.10;99.90;;;;;;6154172;23;20462;-68
2021/09/07 07:04:34;;;;;;;32.57;23.23;;;16.20;99.90;;;;;;6154244;23;20908;-68
2021/09/07 07:07:00;;;;;;;29.90;22.20;;;16.30;99.90;;;;;;6154713;23;20477;-70
2021/09/07 07:09:28;;;;;;;28.47;22.60;;;16.40;99.90;;;;;;6155190;23;20443;-68
2021/09/07 07:11:55;;;;;;;25.50;22.07;;;16.50;99.90;;;;;;6154892;23;20450;-68
2021/09/07 07:14:21;;;;;;;27.83;22.07;;;16.60;99.90;;;;;;6154381;23;20423;-68
2021/09/07 07:16:48;;;;;;;24.67;20.53;;;16.80;99.90;;;;;;6155031;23;20457;-68
2021/09/07 07:19:15;;;;;;;20.57;18.30;;;17.00;99.90;;;;;;6154127;23;20446;-69
2021/09/07 07:21:41;;;;;;;20.80;18.30;;;17.10;99.90;;;;;;6153777;23;20454;-69
2021/09/07 07:24:08;;;;;;;19.67;17.50;;;17.30;99.90;;;;;;6154622;23;20488;-68
2021/09/07 07:26:36;;;;;;;22.07;17.03;;;17.50;99.90;;;;;;6154058;23;20496;-69
2021/09/07 07:29:03;;;;;;;16.70;14.80;;;17.70;99.90;;;;;;6154983;23;20427;-69
2021/09/07 07:31:30;;;;;;;16.00;13.50;;;17.90;99.90;;;;;;6154124;23;20439;-68
2021/09/07 07:33:56;;;;;;;12.40;11.20;;;18.00;99.90;;;;;;6154197;23;20423;-68
2021/09/07 07:36:23;;;;;;;13.07;11.20;;;18.00;99.90;;;;;;6154148;23;20718;-69
2021/09/07 07:38:49;;;;;;;9.63;8.83;;;18.00;99.90;;;;;;6154192;23;20434;-68
2021/09/07 07:41:16;;;;;;;10.40;9.43;;;17.90;99.90;;;;;;6154549;23;20451;-69
2021/09/07 07:43:46;;;;;;;13.70;9.87;;;17.90;99.90;;;;;;6154599;23;20477;-68
2021/09/07 07:46:13;;;;;;;9.90;8.93;;;17.90;99.90;;;;;;6154557;23;20439;-69
2021/09/07 07:48:40;;;;;;;11.13;9.87;;;17.90;99.90;;;;;;6154083;23;20422;-68
2021/09/07 07:51:07;;;;;;;14.90;11.00;;;17.90;99.90;;;;;;6153800;23;20545;-69
2021/09/07 07:53:34;;;;;;;11.40;9.53;;;17.80;99.90;;;;;;6154323;23;20461;-68
2021/09/07 07:56:01;;;;;;;10.23;9.23;;;18.00;99.90;;;;;;6153876;23;20415;-69
2021/09/07 07:58:27;;;;;;;9.33;8.53;;;18.10;99.90;;;;;;6154119;23;20873;-67
2021/09/07 08:00:55;;;;;;;8.43;7.73;;;18.20;99.90;;;;;;6154321;23;20508;-68
2021/09/07 08:03:22;;;;;;;9.00;8.20;;;18.30;99.90;;;;;;6154553;23;20476;-68
2021/09/07 08:05:48;;;;;;;10.77;9.47;;;18.40;99.90;;;;;;6156378;23;20454;-68
2021/09/07 08:08:15;;;;;;;10.07;9.07;;;18.30;99.90;;;;;;6156060;23;20924;-67
2021/09/07 08:10:42;;;;;;;11.13;9.63;;;18.00;99.90;;;;;;6156536;23;20443;-68
2021/09/07 08:13:09;;;;;;;11.30;9.80;;;17.90;99.90;;;;;;6156494;23;20426;-68
2021/09/07 08:15:36;;;;;;;14.57;10.13;;;18.00;99.90;;;;;;6156977;23;20805;-72
2021/09/07 08:18:04;;;;;;;10.47;9.57;;;18.00;99.90;;;;;;6155706;23;20434;-70
2021/09/07 08:20:32;;;;;;;11.87;10.67;;;18.00;99.90;;;;;;6155699;23;20442;-71
2021/09/07 08:22:59;;;;;;;11.20;10.10;;;18.00;99.90;;;;;;6155845;23;20428;-71
2021/09/07 08:25:26;;;;;;;9.83;8.83;;;18.10;99.90;;;;;;6156232;23;20446;-70
2021/09/07 08:27:53;;;;;;;10.00;9.10;;;18.10;99.90;;;;;;6156807;23;20453;-71
2021/09/07 08:30:19;;;;;;;10.03;9.03;;;18.00;99.90;;;;;;6155591;23;20446;-71
2021/09/07 08:32:47;;;;;;;9.67;8.87;;;18.10;99.90;;;;;;6155266;23;20429;-71
2021/09/07 08:35:15;;;;;;;12.57;10.30;;;18.10;99.90;;;;;;6155347;23;20422;-71
2021/09/07 08:37:43;;;;;;;10.50;9.27;;;18.20;99.90;;;;;;6156218;23;20426;-72
2021/09/07 08:40:11;;;;;;;10.43;9.47;;;18.20;99.90;;;;;;6129478;23;20432;-71
2021/09/07 08:42:38;;;;;;;7.80;7.30;;;18.20;99.90;;;;;;6155363;23;20442;-71
2021/09/07 08:45:07;;;;;;;9.10;8.30;;;18.30;99.90;;;;;;6155945;23;20743;-71
2021/09/07 08:47:34;;;;;;;9.80;9.00;;;18.40;99.90;;;;;;6155977;23;20427;-70
2021/09/07 08:50:02;;;;;;;8.70;7.90;;;18.50;99.90;;;;;;6155799;23;20482;-71
2021/09/07 08:52:31;;;;;;;8.40;7.70;;;18.50;99.90;;;;;;6155663;23;20458;-71
2021/09/07 08:54:57;;;;;;;7.20;6.60;;;18.50;99.90;;;;;;6155885;23;20433;-71
2021/09/07 08:57:24;;;;;;;8.20;6.97;;;18.50;99.90;;;;;;6156568;23;20786;-73
2021/09/07 08:59:57;;;;;;;9.13;8.33;;;18.50;99.90;;;;;;6156041;23;20425;-73
2021/09/07 09:02:25;;;;;;;9.00;8.23;;;18.50;99.90;;;;;;6155540;23;21092;-72
2021/09/07 09:04:54;;;;;;;7.80;7.00;;;18.60;99.90;;;;;;6155522;23;20461;-72
2021/09/07 09:07:22;;;;;;;7.77;7.07;;;18.70;99.90;;;;;;6156301;23;20461;-72
2021/09/07 09:09:51;;;;;;;7.03;6.40;;;18.80;99.90;;;;;;6155965;23;20470;-72
2021/09/07 09:12:18;;;;;;;8.30;7.00;;;19.00;99.90;;;;;;6155425;23;20446;-73
2021/09/07 09:14:47;;;;;;;6.77;6.17;;;19.10;99.90;;;;;;6155093;23;20422;-72
2021/09/07 09:17:26;;;;;;;6.50;5.87;;;19.30;99.90;;;;;;6155416;23;20469;-72
2021/09/07 09:19:54;;;;;;;8.63;7.40;;;19.40;99.90;;;;;;6155416;23;20481;-72
2021/09/07 09:22:22;;;;;;;7.17;5.40;;;19.40;99.90;;;;;;6155529;23;20450;-72
2021/09/07 09:24:50;;;;;;;5.57;5.07;;;19.50;99.90;;;;;;6154976;23;20426;-72
2021/09/07 09:27:17;;;;;;;5.33;4.43;;;19.60;99.90;;;;;;6154668;23;20466;-71
2021/09/07 09:29:44;;;;;;;4.53;4.27;;;19.60;99.90;;;;;;6155496;23;20728;-72
2021/09/07 09:32:12;;;;;;;5.80;5.30;;;19.60;99.90;;;;;;6154971;23;20770;-70
2021/09/07 09:34:40;;;;;;;5.23;4.60;;;19.70;99.90;;;;;;6155189;23;20747;-71
2021/09/07 09:37:09;;;;;;;5.83;5.33;;;19.60;99.90;;;;;;6155291;23;20446;-71
2021/09/07 09:39:45;;;;;;;4.50;4.20;;;19.60;99.90;;;;;;6155683;23;20461;-71
2021/09/07 09:42:18;;;;;;;5.60;5.20;;;19.60;99.90;;;;;;6155201;23;20449;-71
2021/09/07 09:44:45;;;;;;;6.60;6.00;;;19.60;99.90;;;;;;6155312;23;20470;-70
2021/09/07 09:47:12;;;;;;;7.27;6.03;;;19.60;99.90;;;;;;6154601;23;20509;-70
2021/09/07 09:49:39;;;;;;;5.20;4.90;;;19.60;99.90;;;;;;6155315;23;20473;-71
2021/09/07 09:52:08;;;;;;;5.13;4.90;;;19.60;99.90;;;;;;6155371;23;20443;-71
2021/09/07 09:54:38;;;;;;;4.80;4.47;;;19.60;99.90;;;;;;6155860;23;20422;-70
2021/09/07 09:57:06;;;;;;;5.30;4.57;;;19.70;99.90;;;;;;6155917;23;20573;-70
2021/09/07 09:59:34;;;;;;;5.00;4.63;;;19.80;99.90;;;;;;6157357;23;20729;-70
2021/09/07 10:02:02;;;;;;;6.00;5.60;;;19.90;99.90;;;;;;6156626;23;20554;-69
2021/09/07 10:04:31;;;;;;;5.43;5.13;;;19.90;99.90;;;;;;6156225;23;20458;-69
2021/09/07 10:06:57;;;;;;;5.27;4.97;;;19.90;99.90;;;;;;6156650;23;20513;-69
2021/09/07 10:09:26;;;;;;;5.13;4.63;;;19.90;99.90;;;;;;6156334;23;20429;-70
2021/09/07 10:11:59;;;;;;;4.80;4.40;;;19.90;99.90;;;;;;6156186;23;20928;-70
2021/09/07 10:14:31;;;;;;;4.53;4.27;;;20.00;99.90;;;;;;6155248;23;20416;-69
2021/09/07 10:17:31;;;;;;;5.53;3.70;;;20.00;99.90;;;;;;6155741;23;20477;-68
2021/09/07 10:20:03;;;;;;;4.43;4.20;;;20.10;99.90;;;;;;6138233;23;20477;-67
2021/09/07 10:25:53;;;;;;;4.93;4.67;;;20.10;99.90;;;;;;6116644;23;20417;-68
2021/09/07 10:28:31;;;;;;;4.97;4.60;;;20.20;99.90;;;;;;6155350;23;20419;-67
2021/09/07 10:31:00;;;;;;;5.00;4.70;;;20.30;99.90;;;;;;6154944;23;20446;-67
2021/09/07 10:33:33;;;;;;;4.93;4.70;;;20.30;99.90;;;;;;6154320;23;20429;-67
2021/09/07 10:36:08;;;;;;;4.70;4.40;;;20.30;99.90;;;;;;6154336;23;20920;-67
2021/09/07 10:38:40;;;;;;;4.70;4.40;;;20.40;99.90;;;;;;6154856;23;20446;-68
2021/09/07 10:41:08;;;;;;;4.40;3.67;;;20.50;99.90;;;;;;6154766;23;20473;-67
2021/09/07 10:43:54;;;;;;;4.63;4.33;;;20.60;99.90;;;;;;6154812;23;20423;-68
2021/09/07 10:46:45;;;;;;;4.17;3.90;;;20.60;99.90;;;;;;6154581;23;20501;-68
2021/09/07 10:49:23;;;;;;;4.40;4.00;;;20.70;99.90;;;;;;6154455;23;20853;-68
2021/09/07 10:52:11;;;;;;;4.13;3.93;;;20.80;99.90;;;;;;6154482;23;20462;-70
2021/09/07 10:54:42;;;;;;;4.30;4.00;;;20.80;99.90;;;;;;6154823;23;20410;-67
2021/09/07 10:57:09;;;;;;;4.17;3.87;;;20.90;99.90;;;;;;6154741;23;20431;-68
2021/09/07 10:59:47;;;;;;;3.90;3.80;;;20.90;99.90;;;;;;6154367;23;20477;-68
2021/09/07 11:02:34;;;;;;;4.40;4.00;;;21.00;99.90;;;;;;6153589;23;20476;-68
2021/09/07 11:05:04;;;;;;;4.17;3.80;;;21.00;99.90;;;;;;6154588;23;20438;-68
2021/09/07 11:07:40;;;;;;;3.20;3.00;;;21.00;99.90;;;;;;6154667;23;20453;-68
2021/09/07 11:10:25;;;;;;;3.90;3.70;;;21.00;99.90;;;;;;6154959;23;20800;-69
2021/09/07 11:12:53;;;;;;;3.63;3.47;;;21.00;99.90;;;;;;6154649;23;20407;-68
2021/09/07 11:15:23;;;;;;;4.87;4.57;;;21.10;99.90;;;;;;6154346;23;20468;-68
2021/09/07 11:17:51;;;;;;;5.10;4.60;;;21.10;99.90;;;;;;6154348;23;20423;-69
2021/09/07 11:20:21;;;;;;;3.87;3.67;;;21.20;99.90;;;;;;6154068;23;20423;-69
2021/09/07 11:22:47;;;;;;;3.90;3.70;;;21.20;99.90;;;;;;6154415;23;20423;-68
2021/09/07 11:25:16;;;;;;;3.70;3.50;;;21.20;99.90;;;;;;6154662;23;20426;-69
2021/09/07 11:27:52;;;;;;;4.43;3.93;;;21.30;99.90;;;;;;6154224;23;20446;-71
2021/09/07 11:30:27;;;;;;;4.90;4.50;;;21.30;99.90;;;;;;6154803;23;20411;-71
2021/09/07 11:32:58;;;;;;;4.53;4.13;;;21.30;99.90;;;;;;6154017;23;20406;-71
2021/09/07 11:35:27;;;;;;;4.50;4.23;;;21.40;99.90;;;;;;6153498;23;20881;-71
2021/09/07 11:37:59;;;;;;;3.90;3.70;;;21.60;99.90;;;;;;6153781;23;20443;-71
2021/09/07 11:40:26;;;;;;;3.57;3.47;;;21.70;99.90;;;;;;6154258;23;20846;-70
2021/09/07 11:42:53;;;;;;;3.97;3.77;;;21.80;99.90;;;;;;6154112;23;20533;-72
2021/09/07 11:45:21;;;;;;;4.13;3.93;;;21.90;99.90;;;;;;6154061;23;20422;-71
2021/09/07 11:47:48;;;;;;;4.47;4.07;;;21.90;99.90;;;;;;6153899;23;20525;-71
2021/09/07 11:50:19;;;;;;;4.60;4.10;;;22.10;99.90;;;;;;6153742;23;20426;-71
2021/09/07 11:52:49;;;;;;;3.77;3.63;;;22.10;99.90;;;;;;6154062;23;20446;-68
2021/09/07 11:55:38;;;;;;;4.30;4.00;;;22.10;99.90;;;;;;6154413;23;20423;-69
2021/09/07 11:58:05;;;;;;;4.20;4.00;;;22.20;99.90;;;;;;6154667;23;20419;-69
2021/09/07 12:00:32;;;;;;;4.00;3.70;;;22.10;99.90;;;;;;6154143;23;20493;-69
2021/09/07 12:03:12;;;;;;;4.00;3.70;;;22.10;99.90;;;;;;6153183;23;20439;-69
2021/09/07 12:05:55;;;;;;;4.13;3.87;;;22.20;99.90;;;;;;6153830;23;20426;-68
2021/09/07 12:08:38;;;;;;;4.03;3.83;;;22.20;99.90;;;;;;6154275;23;20406;-69
2021/09/07 12:11:06;;;;;;;4.07;3.77;;;22.30;99.90;;;;;;6153663;23;20461;-69
2021/09/07 12:13:34;;;;;;;3.63;3.50;;;22.20;99.90;;;;;;6153855;23;20434;-69
2021/09/07 12:16:01;;;;;;;3.27;3.07;;;22.20;99.90;;;;;;6154376;23;20418;-69
2021/09/07 12:18:30;;;;;;;3.63;3.43;;;22.20;99.90;;;;;;6153925;23;20539;-69
2021/09/07 12:21:15;;;;;;;3.97;3.70;;;22.10;99.90;;;;;;6153763;23;20771;-68
2021/09/07 12:23:45;;;;;;;3.40;3.20;;;22.00;99.90;;;;;;6153568;23;20427;-69
2021/09/07 12:26:12;;;;;;;3.20;3.10;;;22.00;99.90;;;;;;6154135;23;20454;-69
2021/09/07 12:28:40;;;;;;;3.20;3.00;;;21.80;99.90;;;;;;6154282;23;20745;-68
2021/09/07 12:31:19;;;;;;;3.80;3.60;;;21.80;99.90;;;;;;6154414;23;20474;-67
2021/09/07 12:33:49;;;;;;;4.07;3.77;;;21.70;99.90;;;;;;6153996;23;20407;-68
2021/09/07 12:36:17;;;;;;;3.87;3.57;;;21.80;99.90;;;;;;6153181;23;20489;-69
2021/09/07 12:38:45;;;;;;;4.00;3.70;;;21.80;99.90;;;;;;6153813;23;20430;-68
2021/09/07 12:41:14;;;;;;;4.90;4.53;;;21.80;99.90;;;;;;6154102;23;20455;-69
2021/09/07 12:43:42;;;;;;;4.00;3.80;;;21.80;99.90;;;;;;6154128;23;20500;-68
2021/09/07 12:46:11;;;;;;;4.50;4.20;;;21.80;99.90;;;;;;6154437;23;20423;-69
2021/09/07 12:48:40;;;;;;;3.67;3.57;;;21.70;99.90;;;;;;6153897;23;20473;-68
2021/09/07 12:51:08;;;;;;;3.87;3.63;;;21.70;99.90;;;;;;6155462;23;20553;-68
2021/09/07 12:53:39;;;;;;;4.20;4.00;;;21.80;99.90;;;;;;6155851;23;20473;-67
2021/09/07 12:56:09;;;;;;;3.80;3.60;;;21.80;99.90;;;;;;6156215;23;20407;-68
2021/09/07 12:58:39;;;;;;;3.80;3.60;;;21.80;99.90;;;;;;6156209;23;20725;-68
2021/09/07 13:01:08;;;;;;;3.57;3.33;;;21.70;99.90;;;;;;6155475;23;20473;-68
2021/09/07 13:03:38;;;;;;;3.30;3.17;;;21.70;99.90;;;;;;6155353;23;20496;-68
2021/09/07 13:06:07;;;;;;;3.00;2.90;;;21.70;99.90;;;;;;6155412;23;20423;-69
2021/09/07 13:08:34;;;;;;;3.23;3.13;;;21.70;99.90;;;;;;6155799;23;20453;-68
2021/09/07 13:11:01;;;;;;;3.60;3.50;;;21.80;99.90;;;;;;6155413;23;20454;-68
2021/09/07 13:13:29;;;;;;;4.50;4.20;;;21.80;99.90;;;;;;6155601;23;20493;-69
2021/09/07 13:15:58;;;;;;;4.57;4.27;;;21.80;99.90;;;;;;6155666;23;20423;-68
2021/09/07 13:18:24;;;;;;;3.70;3.50;;;21.80;99.90;;;;;;6155209;23;20446;-68
2021/09/07 13:20:51;;;;;;;4.27;3.87;;;21.80;99.90;;;;;;6155079;23;20554;-69
2021/09/07 13:23:18;;;;;;;4.70;4.30;;;21.70;99.90;;;;;;6154878;23;20443;-68
2021/09/07 13:25:44;;;;;;;3.50;3.30;;;21.70;99.90;;;;;;6155587;23;20427;-68
2021/09/07 13:28:11;;;;;;;4.00;3.80;;;21.70;99.90;;;;;;6155259;23;20450;-68
2021/09/07 13:30:39;;;;;;;3.63;3.33;;;21.70;99.90;;;;;;6155900;23;20541;-68
2021/09/07 13:33:06;;;;;;;3.93;3.63;;;21.80;99.90;;;;;;6154336;23;20717;-69
2021/09/07 13:35:33;;;;;;;3.80;3.60;;;21.90;99.90;;;;;;6154338;23;20446;-69
2021/09/07 13:37:59;;;;;;;3.73;3.53;;;21.90;99.90;;;;;;6155287;23;20419;-68
2021/09/07 13:40:26;;;;;;;3.83;3.60;;;21.90;99.90;;;;;;6155313;23;20782;-69
2021/09/07 13:42:53;;;;;;;3.73;3.40;;;21.90;99.90;;;;;;6155099;23;20423;-68
2021/09/07 13:45:20;;;;;;;3.87;3.57;;;21.90;99.90;;;;;;6154827;23;20724;-69
2021/09/07 13:47:48;;;;;;;4.17;3.77;;;21.90;99.90;;;;;;6154592;23;20464;-68
2021/09/07 13:50:15;;;;;;;3.27;3.00;;;21.90;99.90;;;;;;6154485;23;20431;-69
2021/09/07 13:52:42;;;;;;;3.50;3.40;;;22.00;99.90;;;;;;6155296;23;20423;-68
2021/09/07 13:55:11;;;;;;;4.07;3.87;;;22.00;99.90;;;;;;6155224;23;20923;-68
2021/09/07 13:57:38;;;;;;;3.47;3.37;;;21.90;99.90;;;;;;6155156;23;20434;-69
2021/09/07 14:00:06;;;;;;;3.30;3.20;;;21.90;99.90;;;;;;6155257;23;20411;-68
2021/09/07 14:02:33;;;;;;;4.23;3.90;;;22.00;99.90;;;;;;6154160;23;20719;-70
2021/09/07 14:05:01;;;;;;;3.10;3.00;;;22.00;99.90;;;;;;6154206;23;20905;-70
2021/09/07 14:07:27;;;;;;;4.00;3.67;;;22.00;99.90;;;;;;6155410;23;20443;-71
2021/09/07 14:09:54;;;;;;;3.80;3.60;;;22.00;99.90;;;;;;6155220;23;20509;-70
2021/09/07 14:12:21;;;;;;;4.53;4.07;;;22.00;99.90;;;;;;6154616;23;20517;-70
2021/09/07 14:14:47;;;;;;;4.07;3.77;;;22.00;99.90;;;;;;6155111;23;20427;-70
2021/09/07 14:17:14;;;;;;;4.60;4.07;;;22.00;99.90;;;;;;6154087;23;20418;-72
2021/09/07 14:19:41;;;;;;;3.83;3.53;;;22.00;99.90;;;;;;6154562;23;20426;-70
2021/09/07 14:22:09;;;;;;;4.20;4.00;;;21.90;99.90;;;;;;6154102;23;20442;-70
2021/09/07 14:24:35;;;;;;;3.13;3.03;;;21.90;99.90;;;;;;6155011;23;20406;-71
2021/09/07 14:27:02;;;;;;;4.73;4.43;;;22.00;99.90;;;;;;6155180;23;20771;-72
2021/09/07 14:29:29;;;;;;;4.87;4.63;;;22.00;99.90;;;;;;6154260;23;20897;-72
2021/09/07 14:31:55;;;;;;;4.87;4.57;;;22.00;99.90;;;;;;6154994;23;20963;-72
2021/09/07 14:34:22;;;;;;;5.53;4.50;;;22.00;99.90;;;;;;6153874;23;20473;-71
2021/09/07 14:36:49;;;;;;;4.70;4.40;;;22.00;99.90;;;;;;6164463;23;20432;-71
2021/09/07 14:39:17;;;;;;;5.17;4.77;;;22.00;99.90;;;;;;6154463;23;20423;-72
2021/09/07 14:41:43;;;;;;;5.20;4.70;;;22.00;99.90;;;;;;6154694;23;20450;-71
2021/09/07 14:44:10;;;;;;;6.37;4.80;;;22.00;99.90;;;;;;6153992;23;20726;-72
2021/09/07 14:46:37;;;;;;;5.83;5.33;;;22.00;99.90;;;;;;6154891;23;20738;-71
2021/09/07 14:49:04;;;;;;;6.50;6.00;;;22.00;99.90;;;;;;6154196;23;20447;-71
2021/09/07 14:51:31;;;;;;;6.33;5.90;;;22.00;99.90;;;;;;6153980;23;20517;-71
2021/09/07 14:53:57;;;;;;;7.07;6.47;;;22.00;99.90;;;;;;6153756;23;20423;-71
2021/09/07 14:56:25;;;;;;;5.97;5.47;;;22.00;99.90;;;;;;6154182;23;20955;-73
2021/09/07 14:58:52;;;;;;;6.13;5.53;;;22.00;99.90;;;;;;6154558;23;20423;-73
2021/09/07 15:01:19;;;;;;;6.80;6.10;;;21.90;99.90;;;;;;6154529;23;20450;-72
2021/09/07 15:03:46;;;;;;;6.10;5.70;;;21.90;99.90;;;;;;6153834;23;21000;-72
2021/09/07 15:06:13;;;;;;;5.47;5.00;;;21.90;99.90;;;;;;6153700;23;20907;-73
2021/09/07 15:08:40;;;;;;;5.30;4.90;;;21.90;99.90;;;;;;6154617;23;20524;-74
2021/09/07 15:11:07;;;;;;;5.77;5.37;;;21.90;99.90;;;;;;6154544;23;20777;-73
2021/09/07 15:13:35;;;;;;;5.60;5.30;;;21.90;99.90;;;;;;6153331;23;20940;-73
2021/09/07 15:16:02;;;;;;;5.27;4.97;;;21.90;99.90;;;;;;6154512;23;20817;-71
2021/09/07 15:18:29;;;;;;;5.60;5.30;;;21.90;99.90;;;;;;6153492;23;20927;-72
2021/09/07 15:20:56;;;;;;;6.17;5.57;;;21.90;99.90;;;;;;6154041;23;20469;-74
2021/09/07 15:23:23;;;;;;;5.63;5.23;;;21.90;99.90;;;;;;6152696;23;20464;-72
2021/09/07 15:25:49;;;;;;;4.77;4.37;;;21.90;99.90;;;;;;6143465;23;20427;-72
2021/09/07 15:28:16;;;;;;;6.17;5.27;;;21.90;99.90;;;;;;6153936;23;20486;-72
2021/09/07 15:30:44;;;;;;;6.63;5.97;;;21.90;99.90;;;;;;6154215;23;20442;-71
2021/09/07 15:33:11;;;;;;;5.40;4.90;;;21.90;99.90;;;;;;6152557;23;20434;-69
2021/09/07 15:35:37;;;;;;;5.63;5.23;;;21.90;99.90;;;;;;6151953;23;20442;-69
2021/09/07 15:38:04;;;;;;;5.30;4.90;;;21.90;99.90;;;;;;6153965;23;20773;-69
2021/09/07 15:40:31;;;;;;;5.17;4.60;;;21.90;99.90;;;;;;6153399;23;20777;-69
2021/09/07 15:42:57;;;;;;;5.00;4.43;;;21.90;99.90;;;;;;6153636;23;20920;-69
2021/09/07 15:45:24;;;;;;;5.07;4.67;;;21.90;99.90;;;;;;6153804;23;20496;-69
2021/09/07 15:47:52;;;;;;;6.50;6.00;;;21.90;99.90;;;;;;6153027;23;20553;-69
2021/09/07 15:50:19;;;;;;;5.40;4.90;;;21.90;99.90;;;;;;6153292;23;20693;-69
2021/09/07 15:52:48;;;;;;;6.53;5.60;;;21.90;99.90;;;;;;6153558;23;20422;-69
2021/09/07 15:55:15;;;;;;;5.60;5.10;;;21.80;99.90;;;;;;6153570;23;20422;-69
2021/09/07 15:57:43;;;;;;;5.80;5.30;;;21.80;99.90;;;;;;6154083;23;20423;-69
2021/09/07 16:00:10;;;;;;;4.80;4.50;;;21.80;99.90;;;;;;6153051;23;20438;-70
2021/09/07 16:02:37;;;;;;;6.13;5.40;;;21.80;99.90;;;;;;6153168;23;20430;-69
2021/09/07 16:05:06;;;;;;;6.40;5.90;;;21.80;99.90;;;;;;6152926;23;20422;-69
2021/09/07 16:07:34;;;;;;;5.27;4.87;;;21.80;99.90;;;;;;6153988;23;20915;-69
2021/09/07 16:10:01;;;;;;;5.93;5.43;;;21.80;99.90;;;;;;6153426;23;20773;-69
2021/09/07 16:12:29;;;;;;;4.77;4.47;;;21.80;99.90;;;;;;6153209;23;21011;-69
2021/09/07 16:14:56;;;;;;;5.33;5.03;;;21.80;99.90;;;;;;6153758;23;20422;-69
2021/09/07 16:17:23;;;;;;;6.40;5.90;;;21.80;99.90;;;;;;6153840;23;20426;-69
2021/09/07 16:19:49;;;;;;;5.97;5.57;;;21.80;99.90;;;;;;6152834;23;20427;-70
2021/09/07 16:22:18;;;;;;;6.97;6.37;;;21.80;99.90;;;;;;6153667;23;21010;-69
2021/09/07 16:24:45;;;;;;;6.93;6.33;;;21.80;99.90;;;;;;6153841;23;20438;-70
2021/09/07 16:27:11;;;;;;;4.37;4.17;;;21.80;99.90;;;;;;6155522;23;20427;-69
2021/09/07 16:29:38;;;;;;;4.30;4.10;;;21.70;99.90;;;;;;6155180;23;20971;-68
2021/09/07 16:32:06;;;;;;;5.50;5.10;;;21.70;99.90;;;;;;6164129;23;20446;-69
2021/09/07 16:34:32;;;;;;;5.17;4.80;;;21.70;99.90;;;;;;6154436;23;20545;-68
2021/09/07 16:36:59;;;;;;;6.83;6.43;;;21.60;99.90;;;;;;6155540;23;20493;-67
2021/09/07 16:39:28;;;;;;;7.27;6.60;;;21.60;99.90;;;;;;6154695;23;20877;-68
2021/09/07 16:41:55;;;;;;;11.07;10.10;;;21.60;99.90;;;;;;6153292;23;20442;-68
2021/09/07 16:44:22;;;;;;;4.73;4.43;;;21.50;99.90;;;;;;6151830;23;20428;-69
2021/09/07 16:46:48;;;;;;;4.60;4.30;;;21.50;99.90;;;;;;6154848;23;20426;-67
2021/09/07 16:49:15;;;;;;;10.33;9.37;;;21.40;99.90;;;;;;6152939;23;21287;-69